createdAt,value
2018-05-27T00:01:17.979Z,15.27
2018-05-27T00:03:46.200Z,18.73
2018-05-27T00:06:14.451Z,15.40
2018-05-27T00:08:56.135Z,15.03
2018-05-27T00:11:24.348Z,16.57
2018-05-27T00:13:52.565Z,17.63
2018-05-27T00:16:20.922Z,17.30
2018-05-27T00:18:49.238Z,17.27
2018-05-27T00:24:18.143Z,18.40
2018-05-27T00:26:46.441Z,17.60
2018-05-27T00:32:15.340Z,16.40
2018-05-27T00:34:44.317Z,16.93
2018-05-27T00:37:12.518Z,17.13
2018-05-27T00:39:41.658Z,18.77
2018-05-27T00:45:10.094Z,17.27
2018-05-27T00:47:38.296Z,19.73
2018-05-27T00:50:07.281Z,15.47
2018-05-27T00:52:36.468Z,16.47
2018-05-27T00:55:05.439Z,16.47
2018-05-27T00:57:56.861Z,15.37
2018-05-27T01:00:26.562Z,14.60
2018-05-27T01:02:54.762Z,16.67
2018-05-27T01:05:25.490Z,16.57
2018-05-27T01:07:53.775Z,17.73
2018-05-27T01:10:22.762Z,15.90
2018-05-27T01:12:51.845Z,16.57
2018-05-27T01:15:20.051Z,16.07
2018-05-27T01:17:56.204Z,17.03
2018-05-27T01:20:25.175Z,17.67
2018-05-27T01:22:53.447Z,15.90
2018-05-27T01:28:22.557Z,15.70
2018-05-27T01:30:50.944Z,16.83
2018-05-27T01:33:19.182Z,17.43
2018-05-27T01:35:47.403Z,14.37
2018-05-27T01:41:17.533Z,21.50
2018-05-27T01:43:47.243Z,17.60
2018-05-27T01:46:15.412Z,17.83
2018-05-27T01:48:43.625Z,15.07
2018-05-27T01:51:11.806Z,16.13
2018-05-27T01:53:56.842Z,16.70
2018-05-27T01:56:25.790Z,14.30
2018-05-27T01:58:53.998Z,15.10
2018-05-27T02:01:22.261Z,14.47
2018-05-27T02:03:50.446Z,18.00
2018-05-27T02:06:19.410Z,16.53
2018-05-27T02:08:47.687Z,16.00
2018-05-27T02:11:15.891Z,17.80
2018-05-27T02:13:55.183Z,16.20
2018-05-27T02:16:23.390Z,19.37
2018-05-27T02:18:51.842Z,14.73
2018-05-27T02:21:20.150Z,16.43
2018-05-27T02:23:48.342Z,18.90
2018-05-27T02:26:17.318Z,21.63
2018-05-27T02:28:45.542Z,20.60
2018-05-27T02:31:13.879Z,21.33
2018-05-27T02:33:42.853Z,18.50
2018-05-27T02:36:11.838Z,16.37
2018-05-27T02:38:40.040Z,19.37
2018-05-27T02:41:09.027Z,15.30
2018-05-27T02:43:38.010Z,16.93
2018-05-27T02:46:06.798Z,16.50
2018-05-27T02:48:55.355Z,16.47
2018-05-27T02:51:24.410Z,19.40
2018-05-27T02:53:52.602Z,22.20
2018-05-27T02:56:21.098Z,22.27
2018-05-27T02:58:49.360Z,23.73
2018-05-27T03:01:17.559Z,25.30
2018-05-27T03:03:46.651Z,20.30
2018-05-27T03:06:15.738Z,27.27
2018-05-27T03:08:56.900Z,18.00
2018-05-27T03:11:25.091Z,26.90
2018-05-27T03:13:53.289Z,16.50
2018-05-27T03:19:22.573Z,27.87
2018-05-27T03:21:52.289Z,24.00
2018-05-27T03:24:20.579Z,21.60
2018-05-27T03:26:49.653Z,19.60
2018-05-27T03:29:17.844Z,16.50
2018-05-27T03:31:46.931Z,16.83
2018-05-27T03:34:15.206Z,18.73
2018-05-27T03:36:56.274Z,16.03
2018-05-27T03:39:25.071Z,21.30
2018-05-27T03:41:53.254Z,16.43
2018-05-27T03:44:22.243Z,21.20
2018-05-27T03:46:51.330Z,16.90
2018-05-27T03:49:19.510Z,22.03
2018-05-27T03:51:48.495Z,19.67
2018-05-27T03:54:16.717Z,26.43
2018-05-27T03:56:45.007Z,22.00
2018-05-27T04:02:14.056Z,30.23
2018-05-27T04:05:08.971Z,26.93
2018-05-27T04:07:55.975Z,22.23
2018-05-27T04:10:24.175Z,21.93
2018-05-27T04:12:58.685Z,20.07
2018-05-27T04:15:27.638Z,17.67
2018-05-27T04:17:55.909Z,19.93
2018-05-27T04:20:24.206Z,17.50
2018-05-27T04:22:52.481Z,16.73
2018-05-27T04:25:22.174Z,17.60
2018-05-27T04:27:56.784Z,21.53
2018-05-27T04:30:25.506Z,17.57
2018-05-27T04:32:53.974Z,17.43
2018-05-27T04:35:22.252Z,17.43
2018-05-27T04:37:50.460Z,17.23
2018-05-27T04:40:19.419Z,30.50
2018-05-27T04:42:47.643Z,35.80
2018-05-27T04:45:16.281Z,26.40
2018-05-27T04:47:57.063Z,25.70
2018-05-27T04:50:26.020Z,27.17
2018-05-27T04:52:54.228Z,27.97
2018-05-27T04:55:23.310Z,20.00
2018-05-27T04:57:51.494Z,28.57
2018-05-27T05:00:20.336Z,27.37
2018-05-27T05:02:48.554Z,31.60
2018-05-27T05:05:16.825Z,29.17
2018-05-27T05:07:57.882Z,23.37
2018-05-27T05:10:26.070Z,24.83
2018-05-27T05:12:55.029Z,29.03
2018-05-27T05:15:23.246Z,34.00
2018-05-27T05:17:52.630Z,27.73
2018-05-27T05:20:20.819Z,27.17
2018-05-27T05:22:49.098Z,21.37
2018-05-27T05:25:17.381Z,29.47
2018-05-27T05:27:46.422Z,31.47
2018-05-27T05:30:14.638Z,32.40
2018-05-27T05:32:42.919Z,30.23
2018-05-27T05:38:56.812Z,34.57
2018-05-27T05:41:25.053Z,27.80
2018-05-27T05:43:53.291Z,27.87
2018-05-27T05:46:21.593Z,32.30
2018-05-27T05:48:49.787Z,28.17
2018-05-27T05:51:18.775Z,28.80
2018-05-27T05:53:47.108Z,27.03
2018-05-27T05:56:15.311Z,30.80
2018-05-27T05:58:43.559Z,20.27
2018-05-27T06:04:11.876Z,33.30
2018-05-27T06:06:56.769Z,26.43
2018-05-27T06:09:54.865Z,29.53
2018-05-27T06:12:23.112Z,29.70
2018-05-27T06:14:57.434Z,29.13
2018-05-27T06:17:55.919Z,30.20
2018-05-27T06:20:25.015Z,28.50
2018-05-27T06:22:56.966Z,33.07
2018-05-27T06:25:55.180Z,29.87
2018-05-27T06:28:23.362Z,27.03
2018-05-27T06:30:57.839Z,26.20
2018-05-27T06:33:56.694Z,26.97
2018-05-27T06:36:25.329Z,23.40
2018-05-27T06:41:56.040Z,23.77
2018-05-27T06:44:24.217Z,26.33
2018-05-27T06:46:58.879Z,23.93
2018-05-27T06:49:55.466Z,23.60
2018-05-27T06:52:23.775Z,26.23
2018-05-27T06:54:58.056Z,25.80
2018-05-27T06:57:54.695Z,21.80
2018-05-27T07:00:22.891Z,24.03
2018-05-27T07:02:57.236Z,20.30
2018-05-27T07:05:25.571Z,21.30
2018-05-27T07:07:57.058Z,22.73
2018-05-27T07:10:25.264Z,19.83
2018-05-27T07:12:53.496Z,26.90
2018-05-27T07:18:23.549Z,20.57
2018-05-27T07:20:57.927Z,21.57
2018-05-27T07:23:54.842Z,19.80
2018-05-27T07:26:23.040Z,19.30
2018-05-27T07:28:57.717Z,18.60
2018-05-27T07:31:56.634Z,19.20
2018-05-27T07:34:51.622Z,19.97
2018-05-27T07:40:20.745Z,16.70
2018-05-27T07:42:49.707Z,22.03
2018-05-27T07:45:17.993Z,24.77
2018-05-27T07:47:46.215Z,19.63
2018-05-27T07:56:15.750Z,20.20
2018-05-27T07:58:43.943Z,19.20
2018-05-27T08:10:13.235Z,19.70
2018-05-27T08:12:55.956Z,18.23
2018-05-27T08:18:55.036Z,19.70
2018-05-27T08:21:23.227Z,18.60
2018-05-27T08:23:57.751Z,18.70
2018-05-27T08:26:56.684Z,19.20
2018-05-27T08:29:55.897Z,18.33
2018-05-27T08:38:24.747Z,15.93
2018-05-27T08:40:59.065Z,18.23
2018-05-27T08:43:55.703Z,15.40
2018-05-27T08:49:24.777Z,15.40
2018-05-27T08:51:57.506Z,14.50
2018-05-27T08:54:56.215Z,14.70
2018-05-27T08:57:24.493Z,14.40
2018-05-27T08:59:54.852Z,17.17
2018-05-27T09:02:24.025Z,15.70
2018-05-27T09:04:52.301Z,14.60
2018-05-27T09:07:20.495Z,15.00
2018-05-27T09:09:49.482Z,14.30
2018-05-27T09:12:18.465Z,13.90
2018-05-27T09:14:56.680Z,12.77
2018-05-27T09:17:24.869Z,12.90
2018-05-27T09:19:57.580Z,13.60
2018-05-27T09:22:56.001Z,13.40
2018-05-27T09:25:24.218Z,12.33
2018-05-27T09:27:52.523Z,11.17
2018-05-27T09:30:20.701Z,11.87
2018-05-27T09:32:48.915Z,12.37
2018-05-27T09:35:17.194Z,12.20
2018-05-27T09:37:46.241Z,12.50
2018-05-27T09:40:14.551Z,13.90
2018-05-27T09:42:56.130Z,12.57
2018-05-27T09:45:24.502Z,11.67
2018-05-27T09:47:52.637Z,13.50
2018-05-27T09:53:21.032Z,10.60
2018-05-27T09:55:49.227Z,11.47
2018-05-27T09:58:17.504Z,11.17
2018-05-27T10:00:45.735Z,10.87
2018-05-27T10:03:15.095Z,10.57
2018-05-27T10:05:43.298Z,10.90
2018-05-27T10:08:11.530Z,10.53
2018-05-27T10:10:39.743Z,10.70
2018-05-27T10:13:08.046Z,13.10
2018-05-27T10:15:36.308Z,12.77
2018-05-27T10:18:05.295Z,12.63
2018-05-27T10:20:33.484Z,11.43
2018-05-27T10:23:02.467Z,12.10
2018-05-27T10:25:57.578Z,11.30
2018-05-27T10:28:25.998Z,12.53
2018-05-27T10:30:54.224Z,10.27
2018-05-27T10:36:23.076Z,10.23
2018-05-27T10:38:57.383Z,10.03
2018-05-27T10:41:25.628Z,11.27
2018-05-27T10:43:55.623Z,12.20
2018-05-27T10:46:23.815Z,14.33
2018-05-27T10:48:52.893Z,11.83
2018-05-27T10:51:21.078Z,10.60
2018-05-27T10:53:49.266Z,10.10
2018-05-27T10:56:18.333Z,10.60
2018-05-27T10:58:56.633Z,10.07
2018-05-27T11:01:55.192Z,10.60
2018-05-27T11:04:23.890Z,11.00
2018-05-27T11:06:52.065Z,8.83
2018-05-27T11:09:20.795Z,10.97
2018-05-27T11:11:49.765Z,10.83
2018-05-27T11:14:17.947Z,8.63
2018-05-27T11:16:46.237Z,9.13
2018-05-27T11:19:15.218Z,9.90
2018-05-27T11:21:43.388Z,12.67
2018-05-27T11:24:11.663Z,9.90
2018-05-27T11:26:40.618Z,9.30
2018-05-27T11:32:09.873Z,9.37
2018-05-27T11:34:38.056Z,11.90
2018-05-27T11:37:06.327Z,10.90
2018-05-27T11:39:34.530Z,8.87
2018-05-27T11:42:03.479Z,11.37
2018-05-27T11:44:31.854Z,9.47
2018-05-27T11:47:00.518Z,11.97
2018-05-27T11:49:29.421Z,10.43
2018-05-27T11:51:57.618Z,10.03
2018-05-27T11:54:25.991Z,9.67
2018-05-27T11:56:54.167Z,9.30
2018-05-27T11:59:22.359Z,10.00
2018-05-27T12:01:58.004Z,9.70
2018-05-27T12:04:26.990Z,10.10
2018-05-27T12:06:55.179Z,11.17
2018-05-27T12:12:24.695Z,9.50
2018-05-27T12:14:53.650Z,10.40
2018-05-27T12:17:21.842Z,9.70
2018-05-27T12:19:50.049Z,9.80
2018-05-27T12:22:19.023Z,12.43
2018-05-27T12:24:47.202Z,10.23
2018-05-27T12:27:16.282Z,9.03
2018-05-27T12:32:23.418Z,10.40
2018-05-27T12:34:51.610Z,9.70
2018-05-27T12:40:20.353Z,9.17
2018-05-27T12:42:48.530Z,9.20
2018-05-27T12:45:16.716Z,10.57
2018-05-27T12:47:44.933Z,11.30
2018-05-27T12:50:13.160Z,10.33
2018-05-27T12:52:41.734Z,9.03
2018-05-27T12:55:10.839Z,9.10
2018-05-27T12:57:56.176Z,9.80
2018-05-27T13:00:24.504Z,11.03
2018-05-27T13:02:53.467Z,9.70
2018-05-27T13:05:21.654Z,9.50
2018-05-27T13:07:57.304Z,9.63
2018-05-27T13:10:25.491Z,10.20
2018-05-27T13:12:54.474Z,9.27
2018-05-27T13:15:22.738Z,11.80
2018-05-27T13:17:50.909Z,9.63
2018-05-27T13:20:19.093Z,9.23
2018-05-27T13:22:47.361Z,9.50
2018-05-27T13:28:16.698Z,8.73
2018-05-27T13:30:44.952Z,9.60
2018-05-27T13:33:13.136Z,9.50
2018-05-27T13:35:42.137Z,8.47
2018-05-27T13:38:10.371Z,10.53
2018-05-27T13:40:38.571Z,13.03
2018-05-27T13:43:06.795Z,9.60
2018-05-27T13:45:35.097Z,9.10
2018-05-27T13:51:04.861Z,10.27
2018-05-27T13:53:33.051Z,9.10
2018-05-27T13:56:02.036Z,11.50
2018-05-27T13:58:31.162Z,10.50
2018-05-27T14:00:59.382Z,10.20
2018-05-27T14:03:27.584Z,9.90
2018-05-27T14:05:56.574Z,9.87
2018-05-27T14:08:24.756Z,8.90
2018-05-27T14:10:53.711Z,9.43
2018-05-27T14:13:21.977Z,9.90
2018-05-27T14:15:54.963Z,8.60
2018-05-27T14:21:24.779Z,11.43
2018-05-27T14:23:52.977Z,9.33
2018-05-27T14:26:21.197Z,13.33
2018-05-27T14:28:50.298Z,8.80
2018-05-27T14:31:19.277Z,8.90
2018-05-27T14:33:48.249Z,8.77
2018-05-27T14:36:16.478Z,9.23
2018-05-27T14:38:44.728Z,8.47
2018-05-27T14:41:13.731Z,10.97
2018-05-27T14:43:56.482Z,9.97
2018-05-27T14:46:24.701Z,9.00
2018-05-27T14:48:57.585Z,9.47
2018-05-27T14:51:26.575Z,8.17
2018-05-27T14:53:55.570Z,11.23
2018-05-27T14:56:24.587Z,9.53
2018-05-27T14:58:52.774Z,9.30
2018-05-27T15:01:21.000Z,8.87
2018-05-27T15:03:49.758Z,10.60
2018-05-27T15:06:17.971Z,8.93
2018-05-27T15:08:46.964Z,10.33
2018-05-27T15:14:16.589Z,9.07
2018-05-27T15:16:45.552Z,9.13
2018-05-27T15:19:13.852Z,9.10
2018-05-27T15:21:42.038Z,9.33
2018-05-27T15:24:11.124Z,8.57
2018-05-27T15:26:40.091Z,11.37
2018-05-27T15:32:05.950Z,9.03
2018-05-27T15:34:34.942Z,9.53
2018-05-27T15:37:03.131Z,8.60
2018-05-27T15:39:32.273Z,9.60
2018-05-27T15:42:00.467Z,9.83
2018-05-27T15:44:28.771Z,9.47
2018-05-27T15:46:57.741Z,8.50
2018-05-27T15:49:25.951Z,9.37
2018-05-27T15:51:54.933Z,10.33
2018-05-27T15:54:24.015Z,10.23
2018-05-27T15:56:58.357Z,10.33
2018-05-27T15:59:27.426Z,10.20
2018-05-27T16:01:55.601Z,10.10
2018-05-27T16:04:23.881Z,11.23
2018-05-27T16:06:52.106Z,9.40
2018-05-27T16:09:20.313Z,15.70
2018-05-27T16:11:58.226Z,10.30
2018-05-27T16:14:26.415Z,10.30
2018-05-27T16:16:55.358Z,9.97
2018-05-27T16:19:23.663Z,11.47
2018-05-27T16:21:58.374Z,10.30
2018-05-27T16:24:26.631Z,11.73
2018-05-27T16:26:54.813Z,9.90
2018-05-27T16:29:23.019Z,10.60
2018-05-27T16:31:51.297Z,11.20
2018-05-27T16:34:19.487Z,10.83
2018-05-27T16:36:48.491Z,12.90
2018-05-27T16:42:17.327Z,10.10
2018-05-27T16:44:45.506Z,11.90
2018-05-27T16:47:13.780Z,11.23
2018-05-27T16:49:42.056Z,10.90
2018-05-27T16:52:10.247Z,12.43
2018-05-27T16:54:38.428Z,10.17
2018-05-27T16:57:06.656Z,10.67
2018-05-27T16:59:34.843Z,10.97
2018-05-27T17:02:03.083Z,10.47
2018-05-27T17:04:32.075Z,11.63
2018-05-27T17:07:01.157Z,12.30
2018-05-27T17:09:29.354Z,10.23
2018-05-27T17:11:58.423Z,11.60
2018-05-27T17:14:26.703Z,12.50
2018-05-27T17:16:55.663Z,11.43
2018-05-27T17:19:23.853Z,10.00
2018-05-27T17:21:58.255Z,12.97
2018-05-27T17:24:26.570Z,10.23
2018-05-27T17:26:55.541Z,10.33
2018-05-27T17:29:23.734Z,11.43
2018-05-27T17:31:58.346Z,11.03
2018-05-27T17:34:26.528Z,10.63
2018-05-27T17:36:55.518Z,11.47
2018-05-27T17:39:23.792Z,10.30
2018-05-27T17:41:52.072Z,9.90
2018-05-27T17:44:20.304Z,9.57
2018-05-27T17:46:48.623Z,12.23
2018-05-27T17:49:16.813Z,11.43
2018-05-27T17:51:45.760Z,12.00
2018-05-27T17:54:14.073Z,11.60
2018-05-27T17:56:42.278Z,10.47
2018-05-27T18:05:12.390Z,10.67
2018-05-27T18:07:40.639Z,10.23
2018-05-27T18:10:08.828Z,10.50
2018-05-27T18:12:37.117Z,12.90
2018-05-27T18:18:05.473Z,11.37
2018-05-27T18:20:33.645Z,12.20
2018-05-27T18:23:01.870Z,11.90
2018-05-27T18:25:30.103Z,9.20
2018-05-27T18:27:58.387Z,9.93
2018-05-27T18:30:26.699Z,13.17
2018-05-27T18:32:55.133Z,12.90
2018-05-27T18:35:23.347Z,10.20
2018-05-27T18:37:51.545Z,9.17
2018-05-27T18:40:19.771Z,9.80
2018-05-27T18:42:48.135Z,11.87
2018-05-27T18:45:16.319Z,13.20
2018-05-27T18:47:44.511Z,17.10
2018-05-27T18:50:12.747Z,12.67
2018-05-27T18:52:42.655Z,13.13
2018-05-27T18:55:10.866Z,11.03
2018-05-27T18:57:39.168Z,11.30
2018-05-27T19:00:07.423Z,11.10
2018-05-27T19:02:35.707Z,13.93
2018-05-27T19:05:04.181Z,13.47
2018-05-27T19:07:32.875Z,14.67
2018-05-27T19:10:01.067Z,13.90
2018-05-27T19:12:56.514Z,13.30
2018-05-27T19:15:24.802Z,11.83
2018-05-27T19:17:53.118Z,10.87
2018-05-27T19:20:21.303Z,12.43
2018-05-27T19:22:57.037Z,12.10
2018-05-27T19:25:25.226Z,18.23
2018-05-27T19:27:57.713Z,15.63
2018-05-27T19:30:26.661Z,14.90
2018-05-27T19:32:54.858Z,14.50
2018-05-27T19:35:23.134Z,15.00
2018-05-27T19:37:51.394Z,15.43
2018-05-27T19:43:21.246Z,11.10
2018-05-27T19:45:49.857Z,11.50
2018-05-27T19:48:18.266Z,12.17
2018-05-27T19:50:58.929Z,12.63
2018-05-27T19:53:27.155Z,11.93
2018-05-27T19:55:57.711Z,11.73
2018-05-27T19:58:25.895Z,12.40
2018-05-27T20:00:54.270Z,14.37
2018-05-27T20:03:23.218Z,12.80
2018-05-27T20:05:51.503Z,15.23
2018-05-27T20:08:20.491Z,14.40
2018-05-27T20:10:56.923Z,13.60
2018-05-27T20:13:25.149Z,14.10
2018-05-27T20:15:54.624Z,16.93
2018-05-27T20:18:22.813Z,15.30
2018-05-27T20:20:51.187Z,16.37
2018-05-27T20:23:19.380Z,13.23
2018-05-27T20:25:58.397Z,15.03
2018-05-27T20:28:27.391Z,15.47
2018-05-27T20:30:56.482Z,15.70
2018-05-27T20:33:25.566Z,12.10
2018-05-27T20:35:59.537Z,13.53
2018-05-27T20:38:56.119Z,16.40
2018-05-27T20:41:24.352Z,13.93
2018-05-27T20:43:52.571Z,12.20
2018-05-27T20:49:04.744Z,18.53
2018-05-27T20:54:06.376Z,15.17
2018-05-27T20:56:35.470Z,17.20
2018-05-27T20:59:03.654Z,14.50
2018-05-27T21:01:32.613Z,17.33
2018-05-27T21:04:00.848Z,12.60
2018-05-27T21:06:29.052Z,15.60
2018-05-27T21:12:00.996Z,13.70
2018-05-27T21:14:29.194Z,14.97
2018-05-27T21:16:57.517Z,13.43
2018-05-27T21:19:26.475Z,16.13
2018-05-27T21:21:58.617Z,16.07
2018-05-27T21:24:26.891Z,13.73
2018-05-27T21:26:55.168Z,15.67
2018-05-27T21:32:23.400Z,18.43
2018-05-27T21:34:57.779Z,19.10
2018-05-27T21:37:26.211Z,18.90
2018-05-27T21:39:55.181Z,16.70
2018-05-27T21:42:23.384Z,15.93
2018-05-27T21:44:58.808Z,20.13
2018-05-27T21:47:27.000Z,16.17
2018-05-27T21:49:55.963Z,17.40
2018-05-27T21:52:24.205Z,20.70
2018-05-27T21:54:52.410Z,26.27
2018-05-27T22:00:22.092Z,21.70
2018-05-27T22:02:57.491Z,17.53
2018-05-27T22:05:25.833Z,20.07
2018-05-27T22:07:54.045Z,15.33
2018-05-27T22:13:23.808Z,16.70
2018-05-27T22:15:52.005Z,15.90
2018-05-27T22:18:20.218Z,19.20
2018-05-27T22:20:48.465Z,19.20
2018-05-27T22:23:16.660Z,17.30
2018-05-27T22:25:44.857Z,14.27
2018-05-27T22:28:13.877Z,17.80
2018-05-27T22:30:56.417Z,18.60
2018-05-27T22:36:24.613Z,18.50
2018-05-27T22:38:52.812Z,19.50
2018-05-27T22:41:21.012Z,17.83
2018-05-27T22:43:49.983Z,17.90
2018-05-27T22:46:18.248Z,20.00
2018-05-27T22:48:46.475Z,18.60
2018-05-27T22:51:14.685Z,19.60
2018-05-27T22:53:42.953Z,18.83
2018-05-27T22:56:11.240Z,18.97
2018-05-27T22:58:39.499Z,15.83
2018-05-27T23:01:07.809Z,20.90
2018-05-27T23:03:36.058Z,18.20
2018-05-27T23:06:04.288Z,17.33
2018-05-27T23:08:33.319Z,19.20
2018-05-27T23:11:01.543Z,18.13
2018-05-27T23:13:56.731Z,21.50
2018-05-27T23:16:24.937Z,18.20
2018-05-27T23:18:53.896Z,17.90
2018-05-27T23:23:55.871Z,19.80
2018-05-27T23:26:24.222Z,17.83
2018-05-27T23:28:52.431Z,21.20
2018-05-27T23:31:20.622Z,16.43
2018-05-27T23:33:49.606Z,18.23
2018-05-27T23:36:17.842Z,19.30
2018-05-27T23:38:46.033Z,18.57
2018-05-27T23:41:14.288Z,21.67
2018-05-27T23:43:42.480Z,17.70
2018-05-27T23:46:10.671Z,18.80
2018-05-27T23:48:38.931Z,18.37
2018-05-27T23:51:07.123Z,18.13
2018-05-27T23:53:35.320Z,16.90
2018-05-27T23:56:04.320Z,17.63
2018-05-27T23:58:32.582Z,15.27
